PWSweather.com
Personal Weather Stations
Station Observations
KTXPLANO60
Highlands Of Russell Park, Plano, TX 75025

Highlands Of Russell ParkPlano, TX 75025

Lat: 33.10431671, Lon: -96.75176239

Elevation: 761

Station Type: Davis Wireless VP2 Plus

http://www.planoweather.com

High Low Average
Temperature 75.4°F24.1°C 58.2°F14.6°C 66.2°F19.0°C
Dew Point 67.1°F19.5°C 52.4°F11.3°C 60.4°F15.8°C
Winds 10.4 mph 16.7 kmh Calm Calm 6.0 mph SE9.7 kmh SE
Wind Gusts 19.6 mph31.5 kmh -- 9.0 mph14.5 kmh
Humidity 91% 70% 82%
Pressure 29.97 in1014.9 mb 29.85 in1010.8 mb -
Precipitation 0.03 in0.8 mm - -
Hour Temp Dew Point Humidity Winds Wind Gusts Pressure Precip Precip Rate Daily Precip Total
12:00 AM 61.3°F16.3°C 52.6°F11.4°C 73% 4.6 mph SE7.4 kmh SE 6.9 mph11.1 kmh 29.93 in1013.5 mb - 0.00 in0.0 mm 0.00 in0.0 mm
12:10 AM 61.1°F16.2°C 52.4°F11.3°C 73% 4.6 mph ESE7.4 kmh ESE 5.8 mph9.3 kmh 29.93 in1013.5 mb - 0.00 in0.0 mm 0.00 in0.0 mm
12:20 AM 60.9°F16.1°C 52.6°F11.4°C 74% 4.6 mph SE7.4 kmh SE 9.2 mph14.8 kmh 29.93 in1013.5 mb - 0.00 in0.0 mm 0.00 in0.0 mm
12:30 AM 60.8°F16.0°C 52.8°F11.6°C 75% 6.9 mph ESE11.1 kmh ESE 11.5 mph18.5 kmh 29.93 in1013.5 mb - 0.00 in0.0 mm 0.00 in0.0 mm
12:40 AM 60.7°F15.9°C 52.7°F11.5°C 75% 4.6 mph ESE7.4 kmh ESE 9.2 mph14.8 kmh 29.93 in1013.5 mb - 0.00 in0.0 mm 0.00 in0.0 mm
12:50 AM 60.6°F15.9°C 53.0°F11.7°C 76% 5.8 mph ESE9.3 kmh ESE 8.1 mph13.0 kmh 29.93 in1013.5 mb - 0.00 in0.0 mm 0.00 in0.0 mm
01:00 AM 60.5°F15.8°C 52.9°F11.6°C 76% 4.6 mph SE7.4 kmh SE 5.8 mph9.3 kmh 29.93 in1013.5 mb - 0.00 in0.0 mm 0.00 in0.0 mm
01:10 AM 60.5°F15.8°C 52.9°F11.6°C 76% 6.9 mph ESE11.1 kmh ESE 11.5 mph18.5 kmh 29.93 in1013.5 mb - 0.00 in0.0 mm 0.00 in0.0 mm
01:20 AM 60.4°F15.8°C 53.2°F11.8°C 77% 4.6 mph ESE7.4 kmh ESE 8.1 mph13.0 kmh 29.93 in1013.5 mb - 0.00 in0.0 mm 0.00 in0.0 mm
01:30 AM 60.2°F15.7°C 53.3°F11.8°C 78% 4.6 mph ESE7.4 kmh ESE 5.8 mph9.3 kmh 29.94 in1013.9 mb - 0.00 in0.0 mm 0.00 in0.0 mm
01:40 AM 60.1°F15.6°C 53.2°F11.8°C 78% 3.5 mph SE5.6 kmh SE 8.1 mph13.0 kmh 29.93 in1013.5 mb - 0.00 in0.0 mm 0.00 in0.0 mm
01:50 AM 59.9°F15.5°C 53.4°F11.9°C 79% 2.3 mph SE3.7 kmh SE 5.8 mph9.3 kmh 29.94 in1013.9 mb - 0.00 in0.0 mm 0.00 in0.0 mm
02:00 AM 59.8°F15.4°C 53.3°F11.8°C 79% 4.6 mph ESE7.4 kmh ESE 6.9 mph11.1 kmh 29.93 in1013.5 mb - 0.00 in0.0 mm 0.00 in0.0 mm
02:10 AM 59.8°F15.4°C 53.6°F12.0°C 80% 5.8 mph ESE9.3 kmh ESE 8.1 mph13.0 kmh 29.93 in1013.5 mb - 0.00 in0.0 mm 0.00 in0.0 mm
02:20 AM 59.6°F15.3°C 53.4°F11.9°C 80% 5.8 mph ESE9.3 kmh ESE 11.5 mph18.5 kmh 29.93 in1013.5 mb - 0.00 in0.0 mm 0.00 in0.0 mm
02:30 AM 59.4°F15.2°C 53.2°F11.8°C 80% 4.6 mph ESE7.4 kmh ESE 5.8 mph9.3 kmh 29.93 in1013.5 mb - 0.00 in0.0 mm 0.00 in0.0 mm
02:40 AM 59.2°F15.1°C 53.4°F11.9°C 81% 4.6 mph ESE7.4 kmh ESE 9.2 mph14.8 kmh 29.93 in1013.5 mb - 0.00 in0.0 mm 0.00 in0.0 mm
02:50 AM 59.0°F15.0°C 53.2°F11.8°C 81% 4.6 mph ESE7.4 kmh ESE 9.2 mph14.8 kmh 29.93 in1013.5 mb - 0.00 in0.0 mm 0.00 in0.0 mm
03:00 AM 58.9°F14.9°C 53.4°F11.9°C 82% 4.6 mph ESE7.4 kmh ESE 4.6 mph7.4 kmh 29.93 in1013.5 mb - 0.00 in0.0 mm 0.00 in0.0 mm
03:10 AM 58.9°F14.9°C 53.4°F11.9°C 82% 3.5 mph E5.6 kmh E 5.8 mph9.3 kmh 29.93 in1013.5 mb - 0.00 in0.0 mm 0.00 in0.0 mm
03:20 AM 58.8°F14.9°C 53.3°F11.8°C 82% 4.6 mph ESE7.4 kmh ESE 6.9 mph11.1 kmh 29.92 in1013.2 mb - 0.00 in0.0 mm 0.00 in0.0 mm
03:30 AM 58.6°F14.8°C 53.1°F11.7°C 82% 4.6 mph ESE7.4 kmh ESE 8.1 mph13.0 kmh 29.92 in1013.2 mb - 0.00 in0.0 mm 0.00 in0.0 mm
03:40 AM 58.5°F14.7°C 53.1°F11.7°C 82% 3.5 mph E5.6 kmh E 4.6 mph7.4 kmh 29.92 in1013.2 mb - 0.00 in0.0 mm 0.00 in0.0 mm
03:50 AM 58.5°F14.7°C 53.0°F11.7°C 82% 2.3 mph ESE3.7 kmh ESE 6.9 mph11.1 kmh 29.92 in1013.2 mb - 0.00 in0.0 mm 0.00 in0.0 mm
04:00 AM 58.4°F14.7°C 52.9°F11.6°C 82% 4.6 mph ESE7.4 kmh ESE 5.8 mph9.3 kmh 29.92 in1013.2 mb - 0.00 in0.0 mm 0.00 in0.0 mm
04:10 AM 58.3°F14.6°C 53.2°F11.8°C 83% 5.8 mph ESE9.3 kmh ESE 9.2 mph14.8 kmh 29.92 in1013.2 mb - 0.00 in0.0 mm 0.00 in0.0 mm
04:20 AM 58.2°F14.6°C 53.1°F11.7°C 83% 5.8 mph ESE9.3 kmh ESE 9.2 mph14.8 kmh 29.92 in1013.2 mb - 0.00 in0.0 mm 0.00 in0.0 mm
04:30 AM 58.3°F14.6°C 53.2°F11.8°C 83% 4.6 mph ESE7.4 kmh ESE 6.9 mph11.1 kmh 29.92 in1013.2 mb - 0.00 in0.0 mm 0.00 in0.0 mm
04:40 AM 58.3°F14.6°C 53.2°F11.8°C 83% 4.6 mph SE7.4 kmh SE 6.9 mph11.1 kmh 29.92 in1013.2 mb - 0.00 in0.0 mm 0.00 in0.0 mm
04:50 AM 58.3°F14.6°C 53.2°F11.8°C 83% 2.3 mph ESE3.7 kmh ESE 6.9 mph11.1 kmh 29.93 in1013.5 mb - 0.00 in0.0 mm 0.00 in0.0 mm
05:00 AM 58.4°F14.7°C 53.5°F11.9°C 84% 4.6 mph ESE7.4 kmh ESE 5.8 mph9.3 kmh 29.93 in1013.5 mb - 0.00 in0.0 mm 0.00 in0.0 mm
05:10 AM 58.4°F14.7°C 53.6°F12.0°C 84% 2.3 mph E3.7 kmh E 2.3 mph3.7 kmh 29.93 in1013.5 mb - 0.00 in0.0 mm 0.00 in0.0 mm
05:20 AM 58.4°F14.7°C 53.6°F12.0°C 84% Calm Calm -- 29.94 in1013.9 mb - 0.00 in0.0 mm 0.00 in0.0 mm
05:30 AM 58.3°F14.6°C 53.5°F11.9°C 84% 5.8 mph ESE9.3 kmh ESE 5.8 mph9.3 kmh 29.93 in1013.5 mb - 0.00 in0.0 mm 0.00 in0.0 mm
05:40 AM 58.2°F14.6°C 53.4°F11.9°C 84% 3.5 mph E5.6 kmh E 6.9 mph11.1 kmh 29.94 in1013.9 mb - 0.00 in0.0 mm 0.00 in0.0 mm
05:50 AM 58.3°F14.6°C 53.5°F11.9°C 84% 3.5 mph ESE5.6 kmh ESE 5.8 mph9.3 kmh 29.94 in1013.9 mb - 0.00 in0.0 mm 0.00 in0.0 mm
06:00 AM 58.4°F14.7°C 53.6°F12.0°C 84% 3.5 mph E5.6 kmh E 4.6 mph7.4 kmh 29.94 in1013.9 mb - 0.00 in0.0 mm 0.00 in0.0 mm
06:10 AM 58.5°F14.7°C 53.7°F12.1°C 84% 3.5 mph E5.6 kmh E 4.6 mph7.4 kmh 29.94 in1013.9 mb - 0.00 in0.0 mm 0.00 in0.0 mm
06:20 AM 58.6°F14.8°C 53.8°F12.1°C 84% 3.5 mph E5.6 kmh E 5.8 mph9.3 kmh 29.94 in1013.9 mb - 0.00 in0.0 mm 0.00 in0.0 mm
06:30 AM 58.7°F14.8°C 53.9°F12.2°C 84% 2.3 mph E3.7 kmh E 6.9 mph11.1 kmh 29.94 in1013.9 mb - 0.00 in0.0 mm 0.00 in0.0 mm
06:40 AM 58.7°F14.8°C 53.9°F12.2°C 84% 5.8 mph E9.3 kmh E 8.1 mph13.0 kmh 29.94 in1013.9 mb - 0.00 in0.0 mm 0.00 in0.0 mm
06:50 AM 58.7°F14.8°C 53.9°F12.2°C 84% 3.5 mph E5.6 kmh E 4.6 mph7.4 kmh 29.95 in1014.2 mb - 0.00 in0.0 mm 0.00 in0.0 mm
07:00 AM 58.8°F14.9°C 53.6°F12.0°C 83% 4.6 mph ESE7.4 kmh ESE 6.9 mph11.1 kmh 29.94 in1013.9 mb - 0.00 in0.0 mm 0.00 in0.0 mm
07:10 AM 58.9°F14.9°C 53.7°F12.1°C 83% 6.9 mph ESE11.1 kmh ESE 11.5 mph18.5 kmh 29.93 in1013.5 mb - 0.00 in0.0 mm 0.00 in0.0 mm
07:20 AM 59.2°F15.1°C 54.1°F12.3°C 83% 6.9 mph SE11.1 kmh SE 9.2 mph14.8 kmh 29.93 in1013.5 mb - 0.00 in0.0 mm 0.00 in0.0 mm
07:30 AM 59.6°F15.3°C 54.4°F12.4°C 83% 5.8 mph SE9.3 kmh SE 9.2 mph14.8 kmh 29.93 in1013.5 mb - 0.00 in0.0 mm 0.00 in0.0 mm
07:40 AM 59.9°F15.5°C 54.7°F12.6°C 83% 4.6 mph SE7.4 kmh SE 8.1 mph13.0 kmh 29.93 in1013.5 mb - 0.00 in0.0 mm 0.00 in0.0 mm
07:50 AM 60.3°F15.7°C 55.1°F12.8°C 83% 4.6 mph E7.4 kmh E 5.8 mph9.3 kmh 29.95 in1014.2 mb - 0.00 in0.0 mm 0.00 in0.0 mm
08:00 AM 60.7°F15.9°C 55.2°F12.9°C 82% 4.6 mph ESE7.4 kmh ESE 8.1 mph13.0 kmh 29.95 in1014.2 mb - 0.00 in0.0 mm 0.00 in0.0 mm
08:10 AM 61.1°F16.2°C 55.6°F13.1°C 82% 6.9 mph SE11.1 kmh SE 11.5 mph18.5 kmh 29.94 in1013.9 mb - 0.00 in0.0 mm 0.00 in0.0 mm
08:20 AM 61.4°F16.3°C 55.5°F13.1°C 81% 4.6 mph E7.4 kmh E 6.9 mph11.1 kmh 29.95 in1014.2 mb - 0.00 in0.0 mm 0.00 in0.0 mm
08:30 AM 61.8°F16.6°C 55.9°F13.3°C 81% 3.5 mph ENE5.6 kmh ENE 6.9 mph11.1 kmh 29.95 in1014.2 mb - 0.00 in0.0 mm 0.00 in0.0 mm
08:40 AM 61.9°F16.6°C 56.0°F13.3°C 81% 4.6 mph E7.4 kmh E 8.1 mph13.0 kmh 29.95 in1014.2 mb - 0.00 in0.0 mm 0.00 in0.0 mm
08:50 AM 62.3°F16.8°C 56.4°F13.6°C 81% 2.3 mph E3.7 kmh E 5.8 mph9.3 kmh 29.96 in1014.6 mb - 0.00 in0.0 mm 0.00 in0.0 mm
09:00 AM 63.0°F17.2°C 57.1°F13.9°C 81% 2.3 mph E3.7 kmh E 4.6 mph7.4 kmh 29.97 in1014.9 mb - 0.00 in0.0 mm 0.00 in0.0 mm
09:10 AM 64.1°F17.8°C 57.1°F13.9°C 78% 3.5 mph E5.6 kmh E 6.9 mph11.1 kmh 29.97 in1014.9 mb - 0.00 in0.0 mm 0.00 in0.0 mm
09:20 AM 64.5°F18.1°C 57.5°F14.2°C 78% 3.5 mph SE5.6 kmh SE 11.5 mph18.5 kmh 29.97 in1014.9 mb - 0.00 in0.0 mm 0.00 in0.0 mm
09:30 AM 64.9°F18.3°C 57.5°F14.2°C 77% 4.6 mph SE7.4 kmh SE 12.7 mph20.4 kmh 29.96 in1014.6 mb - 0.00 in0.0 mm 0.00 in0.0 mm
09:40 AM 65.0°F18.3°C 58.0°F14.4°C 78% 4.6 mph ESE7.4 kmh ESE 5.8 mph9.3 kmh 29.96 in1014.6 mb - 0.00 in0.0 mm 0.00 in0.0 mm
09:50 AM 65.8°F18.8°C 58.7°F14.8°C 78% 8.1 mph SE13.0 kmh SE 11.5 mph18.5 kmh 29.96 in1014.6 mb - 0.00 in0.0 mm 0.00 in0.0 mm
10:00 AM 67.1°F19.5°C 59.3°F15.2°C 76% 9.2 mph SE14.8 kmh SE 13.8 mph22.2 kmh 29.95 in1014.2 mb - 0.00 in0.0 mm 0.00 in0.0 mm
10:10 AM 67.7°F19.8°C 59.9°F15.5°C 76% 4.6 mph SSE7.4 kmh SSE 6.9 mph11.1 kmh 29.95 in1014.2 mb - 0.00 in0.0 mm 0.00 in0.0 mm
10:20 AM 68.4°F20.2°C 60.2°F15.7°C 75% 5.8 mph ESE9.3 kmh ESE 8.1 mph13.0 kmh 29.95 in1014.2 mb - 0.00 in0.0 mm 0.00 in0.0 mm
10:30 AM 68.9°F20.5°C 60.7°F15.9°C 75% 6.9 mph SE11.1 kmh SE 9.2 mph14.8 kmh 29.95 in1014.2 mb - 0.00 in0.0 mm 0.00 in0.0 mm
10:40 AM 69.9°F21.1°C 61.2°F16.2°C 74% 4.6 mph ESE7.4 kmh ESE 4.6 mph7.4 kmh 29.95 in1014.2 mb - 0.00 in0.0 mm 0.00 in0.0 mm
10:50 AM 71.6°F22.0°C 62.5°F16.9°C 73% 6.9 mph SSE11.1 kmh SSE 12.7 mph20.4 kmh 29.94 in1013.9 mb - 0.00 in0.0 mm 0.00 in0.0 mm
11:00 AM 71.9°F22.2°C 62.4°F16.9°C 72% 9.2 mph SE14.8 kmh SE 13.8 mph22.2 kmh 29.93 in1013.5 mb - 0.00 in0.0 mm 0.00 in0.0 mm
11:10 AM 71.7°F22.1°C 62.6°F17.0°C 73% 5.8 mph SE9.3 kmh SE 9.2 mph14.8 kmh 29.93 in1013.5 mb - 0.00 in0.0 mm 0.00 in0.0 mm
11:20 AM 72.1°F22.3°C 63.3°F17.4°C 74% 6.9 mph SE11.1 kmh SE 11.5 mph18.5 kmh 29.93 in1013.5 mb - 0.00 in0.0 mm 0.00 in0.0 mm
11:30 AM 72.9°F22.7°C 63.4°F17.4°C 72% Calm Calm 3.5 mph5.6 kmh 29.93 in1013.5 mb - 0.00 in0.0 mm 0.00 in0.0 mm
11:40 AM 73.8°F23.2°C 63.4°F17.4°C 70% 4.6 mph SE7.4 kmh SE 5.8 mph9.3 kmh 29.93 in1013.5 mb - 0.00 in0.0 mm 0.00 in0.0 mm
11:50 AM 73.2°F22.9°C 63.2°F17.3°C 71% 5.8 mph SE9.3 kmh SE 9.2 mph14.8 kmh 29.92 in1013.2 mb - 0.00 in0.0 mm 0.00 in0.0 mm
12:00 PM 73.5°F23.1°C 63.5°F17.5°C 71% 8.1 mph SE13.0 kmh SE 12.7 mph20.4 kmh 29.92 in1013.2 mb - 0.00 in0.0 mm 0.00 in0.0 mm
12:10 PM 73.5°F23.1°C 63.9°F17.7°C 72% 6.9 mph SE11.1 kmh SE 11.5 mph18.5 kmh 29.92 in1013.2 mb - 0.00 in0.0 mm 0.00 in0.0 mm
12:20 PM 73.4°F23.0°C 63.8°F17.7°C 72% 8.1 mph SSE13.0 kmh SSE 11.5 mph18.5 kmh 29.91 in1012.9 mb - 0.00 in0.0 mm 0.00 in0.0 mm
12:30 PM 73.6°F23.1°C 64.4°F18.0°C 73% 6.9 mph SE11.1 kmh SE 9.2 mph14.8 kmh 29.92 in1013.2 mb - 0.00 in0.0 mm 0.00 in0.0 mm
12:40 PM 73.9°F23.3°C 64.3°F17.9°C 72% 5.8 mph SE9.3 kmh SE 10.4 mph16.7 kmh 29.90 in1012.5 mb - 0.00 in0.0 mm 0.00 in0.0 mm
12:50 PM 74.3°F23.5°C 65.0°F18.3°C 73% 5.8 mph SSE9.3 kmh SSE 12.7 mph20.4 kmh 29.90 in1012.5 mb - 0.00 in0.0 mm 0.00 in0.0 mm
01:00 PM 74.6°F23.7°C 65.0°F18.3°C 72% 6.9 mph S11.1 kmh S 10.4 mph16.7 kmh 29.90 in1012.5 mb - 0.00 in0.0 mm 0.00 in0.0 mm
01:10 PM 74.9°F23.8°C 65.3°F18.5°C 72% 8.1 mph SE13.0 kmh SE 12.7 mph20.4 kmh 29.89 in1012.2 mb - 0.00 in0.0 mm 0.00 in0.0 mm
01:20 PM 75.1°F23.9°C 65.9°F18.8°C 73% 6.9 mph SE11.1 kmh SE 10.4 mph16.7 kmh 29.88 in1011.9 mb - 0.00 in0.0 mm 0.00 in0.0 mm
01:30 PM 75.4°F24.1°C 65.7°F18.7°C 72% 5.8 mph SSE9.3 kmh SSE 9.2 mph14.8 kmh 29.88 in1011.9 mb - 0.00 in0.0 mm 0.00 in0.0 mm
01:40 PM 75.4°F24.1°C 66.1°F18.9°C 73% 5.8 mph SE9.3 kmh SE 9.2 mph14.8 kmh 29.88 in1011.9 mb - 0.00 in0.0 mm 0.00 in0.0 mm
01:50 PM 75.1°F23.9°C 65.9°F18.8°C 73% 8.1 mph SE13.0 kmh SE 11.5 mph18.5 kmh 29.88 in1011.9 mb - 0.00 in0.0 mm 0.00 in0.0 mm
02:00 PM 74.9°F23.8°C 65.7°F18.7°C 73% 8.1 mph SE13.0 kmh SE 12.7 mph20.4 kmh 29.88 in1011.9 mb - 0.00 in0.0 mm 0.00 in0.0 mm
02:10 PM 75.1°F23.9°C 65.9°F18.8°C 73% 9.2 mph SE14.8 kmh SE 12.7 mph20.4 kmh 29.88 in1011.9 mb - 0.00 in0.0 mm 0.00 in0.0 mm
02:20 PM 75.3°F24.1°C 66.4°F19.1°C 74% 5.8 mph SSE9.3 kmh SSE 11.5 mph18.5 kmh 29.88 in1011.9 mb - 0.00 in0.0 mm 0.00 in0.0 mm
02:30 PM 75.4°F24.1°C 66.1°F18.9°C 73% 8.1 mph SE13.0 kmh SE 11.5 mph18.5 kmh 29.87 in1011.5 mb - 0.00 in0.0 mm 0.00 in0.0 mm
02:40 PM 75.2°F24.0°C 66.3°F19.1°C 74% 5.8 mph S9.3 kmh S 9.2 mph14.8 kmh 29.87 in1011.5 mb - 0.00 in0.0 mm 0.00 in0.0 mm
02:50 PM 75.1°F23.9°C 66.2°F19.0°C 74% 8.1 mph S13.0 kmh S 10.4 mph16.7 kmh 29.87 in1011.5 mb - 0.00 in0.0 mm 0.00 in0.0 mm
03:00 PM 75.1°F23.9°C 66.6°F19.2°C 75% 5.8 mph SE9.3 kmh SE 6.9 mph11.1 kmh 29.88 in1011.9 mb - 0.00 in0.0 mm 0.00 in0.0 mm
03:10 PM 74.9°F23.8°C 66.8°F19.3°C 76% 6.9 mph SE11.1 kmh SE 11.5 mph18.5 kmh 29.87 in1011.5 mb - 0.00 in0.0 mm 0.00 in0.0 mm
03:20 PM 74.4°F23.6°C 66.7°F19.3°C 77% 8.1 mph SE13.0 kmh SE 13.8 mph22.2 kmh 29.86 in1011.2 mb - 0.00 in0.0 mm 0.00 in0.0 mm
03:30 PM 73.9°F23.3°C 66.6°F19.2°C 78% 6.9 mph SSE11.1 kmh SSE 8.1 mph13.0 kmh 29.86 in1011.2 mb - 0.00 in0.0 mm 0.00 in0.0 mm
03:40 PM 73.7°F23.2°C 67.1°F19.5°C 80% 9.2 mph SE14.8 kmh SE 15.0 mph24.1 kmh 29.86 in1011.2 mb - 0.00 in0.0 mm 0.00 in0.0 mm
03:50 PM 72.7°F22.6°C 66.6°F19.2°C 81% 5.8 mph SE9.3 kmh SE 8.1 mph13.0 kmh 29.86 in1011.2 mb - 0.00 in0.0 mm 0.00 in0.0 mm
04:00 PM 72.4°F22.4°C 66.9°F19.4°C 83% 9.2 mph SE14.8 kmh SE 15.0 mph24.1 kmh 29.86 in1011.2 mb - 0.00 in0.0 mm 0.00 in0.0 mm
04:10 PM 72.2°F22.3°C 67.1°F19.5°C 84% 9.2 mph SE14.8 kmh SE 11.5 mph18.5 kmh 29.86 in1011.2 mb - 0.00 in0.0 mm 0.00 in0.0 mm
04:20 PM 71.8°F22.1°C 66.7°F19.3°C 84% 9.2 mph SE14.8 kmh SE 12.7 mph20.4 kmh 29.86 in1011.2 mb - 0.00 in0.0 mm 0.00 in0.0 mm
04:30 PM 71.5°F21.9°C 66.7°F19.3°C 85% 8.1 mph SE13.0 kmh SE 11.5 mph18.5 kmh 29.86 in1011.2 mb - 0.00 in0.0 mm 0.00 in0.0 mm
04:40 PM 71.3°F21.8°C 66.2°F19.0°C 84% 5.8 mph SE9.3 kmh SE 13.8 mph22.2 kmh 29.86 in1011.2 mb - 0.00 in0.0 mm 0.00 in0.0 mm
04:50 PM 71.2°F21.8°C 66.1°F18.9°C 84% 10.4 mph SE16.7 kmh SE 19.6 mph31.5 kmh 29.86 in1011.2 mb - 0.00 in0.0 mm 0.00 in0.0 mm
05:00 PM 71.1°F21.7°C 66.4°F19.1°C 85% 8.1 mph SE13.0 kmh SE 18.4 mph29.6 kmh 29.86 in1011.2 mb - 0.00 in0.0 mm 0.00 in0.0 mm
05:10 PM 71.0°F21.7°C 66.6°F19.2°C 86% 5.8 mph SE9.3 kmh SE 9.2 mph14.8 kmh 29.85 in1010.8 mb - 0.00 in0.0 mm 0.00 in0.0 mm
05:20 PM 70.7°F21.5°C 66.3°F19.1°C 86% 8.1 mph SSE13.0 kmh SSE 11.5 mph18.5 kmh 29.86 in1011.2 mb - 0.00 in0.0 mm 0.00 in0.0 mm
05:30 PM 70.6°F21.4°C 66.5°F19.2°C 87% 8.1 mph SE13.0 kmh SE 11.5 mph18.5 kmh 29.86 in1011.2 mb - 0.00 in0.0 mm 0.00 in0.0 mm
05:40 PM 70.3°F21.3°C 66.6°F19.2°C 88% 6.9 mph SE11.1 kmh SE 12.7 mph20.4 kmh 29.86 in1011.2 mb - 0.00 in0.0 mm 0.00 in0.0 mm
05:50 PM 70.0°F21.1°C 66.6°F19.2°C 89% 3.5 mph SE5.6 kmh SE 4.6 mph7.4 kmh 29.86 in1011.2 mb - 0.00 in0.0 mm 0.00 in0.0 mm
06:00 PM 69.8°F21.0°C 66.4°F19.1°C 89% 8.1 mph SE13.0 kmh SE 9.2 mph14.8 kmh 29.86 in1011.2 mb - 0.00 in0.0 mm 0.00 in0.0 mm
06:10 PM 69.4°F20.8°C 66.3°F19.1°C 90% 8.1 mph SE13.0 kmh SE 11.5 mph18.5 kmh 29.86 in1011.2 mb - 0.01 in0.3 mm 0.01 in0.3 mm
06:20 PM 69.2°F20.7°C 66.1°F18.9°C 90% 6.9 mph SE11.1 kmh SE 12.7 mph20.4 kmh 29.86 in1011.2 mb - 0.01 in0.3 mm 0.01 in0.3 mm
06:30 PM 68.7°F20.4°C 65.6°F18.7°C 90% 10.4 mph SE16.7 kmh SE 16.1 mph25.9 kmh 29.87 in1011.5 mb - 0.01 in0.3 mm 0.01 in0.3 mm
06:40 PM 68.3°F20.2°C 65.3°F18.5°C 90% 9.2 mph SE14.8 kmh SE 12.7 mph20.4 kmh 29.87 in1011.5 mb - 0.01 in0.3 mm 0.01 in0.3 mm
06:50 PM 68.1°F20.1°C 65.4°F18.6°C 91% 5.8 mph SE9.3 kmh SE 12.7 mph20.4 kmh 29.87 in1011.5 mb - 0.02 in0.5 mm 0.02 in0.5 mm
07:00 PM 67.9°F19.9°C 65.2°F18.4°C 91% 5.8 mph SE9.3 kmh SE 11.5 mph18.5 kmh 29.88 in1011.9 mb - 0.02 in0.5 mm 0.02 in0.5 mm
07:10 PM 67.8°F19.9°C 65.1°F18.4°C 91% 2.3 mph ESE3.7 kmh ESE 6.9 mph11.1 kmh 29.89 in1012.2 mb - 0.01 in0.3 mm 0.02 in0.5 mm
07:20 PM 67.6°F19.8°C 64.9°F18.3°C 91% 6.9 mph SE11.1 kmh SE 12.7 mph20.4 kmh 29.88 in1011.9 mb - 0.01 in0.3 mm 0.02 in0.5 mm
07:30 PM 67.5°F19.7°C 64.8°F18.2°C 91% 5.8 mph SE9.3 kmh SE 11.5 mph18.5 kmh 29.88 in1011.9 mb - 0.01 in0.3 mm 0.02 in0.5 mm
07:40 PM 67.4°F19.7°C 64.7°F18.2°C 91% 10.4 mph SE16.7 kmh SE 13.8 mph22.2 kmh 29.88 in1011.9 mb - 0.01 in0.3 mm 0.02 in0.5 mm
07:50 PM 67.4°F19.7°C 64.7°F18.2°C 91% 8.1 mph SE13.0 kmh SE 11.5 mph18.5 kmh 29.88 in1011.9 mb - 0.00 in0.0 mm 0.02 in0.5 mm
08:00 PM 67.3°F19.6°C 64.6°F18.1°C 91% 10.4 mph SE16.7 kmh SE 15.0 mph24.1 kmh 29.88 in1011.9 mb - 0.01 in0.3 mm 0.03 in0.8 mm
08:10 PM 67.3°F19.6°C 64.6°F18.1°C 91% 6.9 mph SE11.1 kmh SE 11.5 mph18.5 kmh 29.88 in1011.9 mb - 0.01 in0.3 mm 0.03 in0.8 mm
08:20 PM 67.4°F19.7°C 64.7°F18.2°C 91% 6.9 mph SE11.1 kmh SE 8.1 mph13.0 kmh 29.89 in1012.2 mb - 0.01 in0.3 mm 0.03 in0.8 mm
08:30 PM 67.4°F19.7°C 64.7°F18.2°C 91% 6.9 mph SE11.1 kmh SE 11.5 mph18.5 kmh 29.89 in1012.2 mb - 0.01 in0.3 mm 0.03 in0.8 mm
08:40 PM 67.5°F19.7°C 64.8°F18.2°C 91% 6.9 mph SE11.1 kmh SE 11.5 mph18.5 kmh 29.89 in1012.2 mb - 0.01 in0.3 mm 0.03 in0.8 mm
08:50 PM 67.5°F19.7°C 64.8°F18.2°C 91% 5.8 mph ESE9.3 kmh ESE 9.2 mph14.8 kmh 29.89 in1012.2 mb - 0.01 in0.3 mm 0.03 in0.8 mm
09:00 PM 67.5°F19.7°C 64.8°F18.2°C 91% 3.5 mph SE5.6 kmh SE 9.2 mph14.8 kmh 29.89 in1012.2 mb - 0.00 in0.0 mm 0.03 in0.8 mm
09:10 PM 67.6°F19.8°C 64.9°F18.3°C 91% 6.9 mph SE11.1 kmh SE 11.5 mph18.5 kmh 29.89 in1012.2 mb - 0.00 in0.0 mm 0.03 in0.8 mm
09:20 PM 67.6°F19.8°C 64.9°F18.3°C 91% 4.6 mph SE7.4 kmh SE 5.8 mph9.3 kmh 29.89 in1012.2 mb - 0.00 in0.0 mm 0.03 in0.8 mm
09:30 PM 67.7°F19.8°C 65.0°F18.3°C 91% 2.3 mph SE3.7 kmh SE 3.5 mph5.6 kmh 29.89 in1012.2 mb - 0.00 in0.0 mm 0.03 in0.8 mm
09:40 PM 67.7°F19.8°C 65.0°F18.3°C 91% 5.8 mph SE9.3 kmh SE 8.1 mph13.0 kmh 29.90 in1012.5 mb - 0.00 in0.0 mm 0.03 in0.8 mm
09:50 PM 67.8°F19.9°C 65.0°F18.3°C 91% 8.1 mph SE13.0 kmh SE 12.7 mph20.4 kmh 29.89 in1012.2 mb - 0.00 in0.0 mm 0.03 in0.8 mm
10:00 PM 67.9°F19.9°C 65.2°F18.4°C 91% 6.9 mph SE11.1 kmh SE 11.5 mph18.5 kmh 29.89 in1012.2 mb - 0.00 in0.0 mm 0.03 in0.8 mm
10:10 PM 67.9°F19.9°C 65.2°F18.4°C 91% 8.1 mph SE13.0 kmh SE 12.7 mph20.4 kmh 29.89 in1012.2 mb - 0.00 in0.0 mm 0.03 in0.8 mm
10:20 PM 67.9°F19.9°C 65.1°F18.4°C 91% 6.9 mph SE11.1 kmh SE 12.7 mph20.4 kmh 29.89 in1012.2 mb - 0.00 in0.0 mm 0.03 in0.8 mm
10:30 PM 67.8°F19.9°C 65.1°F18.4°C 91% 6.9 mph SE11.1 kmh SE 11.5 mph18.5 kmh 29.89 in1012.2 mb - 0.00 in0.0 mm 0.03 in0.8 mm
10:40 PM 67.8°F19.9°C 65.1°F18.4°C 91% 5.8 mph SE9.3 kmh SE 6.9 mph11.1 kmh 29.89 in1012.2 mb - 0.00 in0.0 mm 0.03 in0.8 mm
10:50 PM 67.9°F19.9°C 65.1°F18.4°C 91% 6.9 mph SE11.1 kmh SE 8.1 mph13.0 kmh 29.89 in1012.2 mb - 0.00 in0.0 mm 0.03 in0.8 mm
11:00 PM 67.9°F19.9°C 65.2°F18.4°C 91% 8.1 mph SE13.0 kmh SE 13.8 mph22.2 kmh 29.88 in1011.9 mb - 0.00 in0.0 mm 0.18 in4.6 mm
11:10 PM 67.9°F19.9°C 65.2°F18.4°C 91% 5.8 mph SE9.3 kmh SE 10.4 mph16.7 kmh 29.88 in1011.9 mb - 0.00 in0.0 mm 0.18 in4.6 mm
11:20 PM 68.0°F20.0°C 65.2°F18.4°C 91% 4.6 mph SE7.4 kmh SE 6.9 mph11.1 kmh 29.88 in1011.9 mb - 0.00 in0.0 mm 0.18 in4.6 mm
11:30 PM 68.0°F20.0°C 65.3°F18.5°C 91% 6.9 mph SE11.1 kmh SE 10.4 mph16.7 kmh 29.88 in1011.9 mb - 0.00 in0.0 mm 0.18 in4.6 mm
11:40 PM 68.1°F20.1°C 65.4°F18.6°C 91% 8.1 mph SE13.0 kmh SE 11.5 mph18.5 kmh 29.88 in1011.9 mb - 0.00 in0.0 mm 0.18 in4.6 mm
11:50 PM 68.1°F20.1°C 65.4°F18.6°C 91% 5.8 mph SE9.3 kmh SE 11.5 mph18.5 kmh 29.87 in1011.5 mb - 0.00 in0.0 mm 0.18 in4.6 mm